sensor_id;sensor_type;location;lat;lon;timestamp;temperature;humidity
28484;DHT22;15704;48.834;8.736;2023-05-07T00:01:21;12.20;99.90
28484;DHT22;15704;48.834;8.736;2023-05-07T00:03:47;12.20;99.90
28484;DHT22;15704;48.834;8.736;2023-05-07T00:06:14;12.20;99.90
28484;DHT22;15704;48.834;8.736;2023-05-07T00:08:41;12.20;99.90
28484;DHT22;15704;48.834;8.736;2023-05-07T00:11:08;12.10;99.90
28484;DHT22;15704;48.834;8.736;2023-05-07T00:13:34;12.10;99.90
28484;DHT22;15704;48.834;8.736;2023-05-07T00:16:03;12.10;99.90
28484;DHT22;15704;48.834;8.736;2023-05-07T00:18:30;12.10;99.90
28484;DHT22;15704;48.834;8.736;2023-05-07T00:20:57;12.20;99.90
28484;DHT22;15704;48.834;8.736;2023-05-07T00:23:23;12.20;99.90
28484;DHT22;15704;48.834;8.736;2023-05-07T00:25:50;12.20;99.90
28484;DHT22;15704;48.834;8.736;2023-05-07T00:28:17;12.20;99.90
28484;DHT22;15704;48.834;8.736;2023-05-07T00:30:44;12.20;99.90
28484;DHT22;15704;48.834;8.736;2023-05-07T00:33:10;12.20;99.90
28484;DHT22;15704;48.834;8.736;2023-05-07T00:35:37;12.20;99.90
28484;DHT22;15704;48.834;8.736;2023-05-07T00:38:04;12.10;99.90
28484;DHT22;15704;48.834;8.736;2023-05-07T00:40:30;12.10;99.90
28484;DHT22;15704;48.834;8.736;2023-05-07T00:42:57;12.20;99.90
28484;DHT22;15704;48.834;8.736;2023-05-07T00:45:28;12.10;99.90
28484;DHT22;15704;48.834;8.736;2023-05-07T00:47:57;12.10;99.90
28484;DHT22;15704;48.834;8.736;2023-05-07T00:50:25;12.10;99.90
28484;DHT22;15704;48.834;8.736;2023-05-07T00:52:53;12.10;99.90
28484;DHT22;15704;48.834;8.736;2023-05-07T00:55:20;12.10;99.90
28484;DHT22;15704;48.834;8.736;2023-05-07T00:57:47;12.10;99.90
28484;DHT22;15704;48.834;8.736;2023-05-07T01:00:14;12.10;99.90
28484;DHT22;15704;48.834;8.736;2023-05-07T01:02:41;12.10;99.90
28484;DHT22;15704;48.834;8.736;2023-05-07T01:05:13;12.10;99.90
28484;DHT22;15704;48.834;8.736;2023-05-07T01:07:42;12.00;99.90
28484;DHT22;15704;48.834;8.736;2023-05-07T01:10:09;12.00;99.90
28484;DHT22;15704;48.834;8.736;2023-05-07T01:12:38;12.00;99.90
28484;DHT22;15704;48.834;8.736;2023-05-07T01:15:08;12.00;99.90
28484;DHT22;15704;48.834;8.736;2023-05-07T01:17:40;12.00;99.90
28484;DHT22;15704;48.834;8.736;2023-05-07T01:20:08;12.00;99.90
28484;DHT22;15704;48.834;8.736;2023-05-07T01:22:38;12.00;99.90
28484;DHT22;15704;48.834;8.736;2023-05-07T01:25:06;12.00;99.90
28484;DHT22;15704;48.834;8.736;2023-05-07T01:27:34;12.00;99.90
28484;DHT22;15704;48.834;8.736;2023-05-07T01:30:02;12.00;99.90
28484;DHT22;15704;48.834;8.736;2023-05-07T01:32:33;12.00;99.90
28484;DHT22;15704;48.834;8.736;2023-05-07T01:35:03;12.10;99.90
28484;DHT22;15704;48.834;8.736;2023-05-07T01:37:32;12.10;99.90
28484;DHT22;15704;48.834;8.736;2023-05-07T01:39:59;12.10;99.90
28484;DHT22;15704;48.834;8.736;2023-05-07T01:42:28;12.10;99.90
28484;DHT22;15704;48.834;8.736;2023-05-07T01:44:55;12.20;99.90
28484;DHT22;15704;48.834;8.736;2023-05-07T01:47:23;12.10;99.90
28484;DHT22;15704;48.834;8.736;2023-05-07T01:49:50;12.20;99.90
28484;DHT22;15704;48.834;8.736;2023-05-07T01:52:17;12.20;99.90
28484;DHT22;15704;48.834;8.736;2023-05-07T01:54:44;12.20;99.90
28484;DHT22;15704;48.834;8.736;2023-05-07T01:57:10;12.20;99.90
28484;DHT22;15704;48.834;8.736;2023-05-07T01:59:37;12.20;99.90
28484;DHT22;15704;48.834;8.736;2023-05-07T02:02:04;12.20;99.90
28484;DHT22;15704;48.834;8.736;2023-05-07T02:04:30;12.20;99.90
28484;DHT22;15704;48.834;8.736;2023-05-07T02:06:57;12.20;99.90
28484;DHT22;15704;48.834;8.736;2023-05-07T02:09:24;12.20;99.90
28484;DHT22;15704;48.834;8.736;2023-05-07T02:11:51;12.20;99.90
28484;DHT22;15704;48.834;8.736;2023-05-07T02:14:17;12.20;99.90
28484;DHT22;15704;48.834;8.736;2023-05-07T02:16:46;12.20;99.90
28484;DHT22;15704;48.834;8.736;2023-05-07T02:19:13;12.20;99.90
28484;DHT22;15704;48.834;8.736;2023-05-07T02:21:39;12.10;99.90
28484;DHT22;15704;48.834;8.736;2023-05-07T02:24:06;12.10;99.90
28484;DHT22;15704;48.834;8.736;2023-05-07T02:26:33;12.10;99.90
28484;DHT22;15704;48.834;8.736;2023-05-07T02:29:00;12.10;99.90
28484;DHT22;15704;48.834;8.736;2023-05-07T02:31:27;12.00;99.90
28484;DHT22;15704;48.834;8.736;2023-05-07T02:33:53;12.10;99.90
28484;DHT22;15704;48.834;8.736;2023-05-07T02:36:20;12.00;99.90
28484;DHT22;15704;48.834;8.736;2023-05-07T02:38:47;12.00;99.90
28484;DHT22;15704;48.834;8.736;2023-05-07T02:41:13;12.00;99.90
28484;DHT22;15704;48.834;8.736;2023-05-07T02:43:40;12.00;99.90
28484;DHT22;15704;48.834;8.736;2023-05-07T02:46:08;12.00;99.90
28484;DHT22;15704;48.834;8.736;2023-05-07T02:48:35;11.90;99.90
28484;DHT22;15704;48.834;8.736;2023-05-07T02:51:03;11.90;99.90
28484;DHT22;15704;48.834;8.736;2023-05-07T02:53:30;11.90;99.90
28484;DHT22;15704;48.834;8.736;2023-05-07T02:55:58;11.90;99.90
28484;DHT22;15704;48.834;8.736;2023-05-07T02:58:25;11.80;99.90
28484;DHT22;15704;48.834;8.736;2023-05-07T03:00:53;11.80;99.90
28484;DHT22;15704;48.834;8.736;2023-05-07T03:03:21;11.80;99.90
28484;DHT22;15704;48.834;8.736;2023-05-07T03:05:47;11.80;99.90
28484;DHT22;15704;48.834;8.736;2023-05-07T03:08:14;11.70;99.90
28484;DHT22;15704;48.834;8.736;2023-05-07T03:10:41;11.80;99.90
28484;DHT22;15704;48.834;8.736;2023-05-07T03:13:08;11.70;99.90
28484;DHT22;15704;48.834;8.736;2023-05-07T03:15:35;11.70;99.90
28484;DHT22;15704;48.834;8.736;2023-05-07T03:18:02;11.70;99.90
28484;DHT22;15704;48.834;8.736;2023-05-07T03:20:29;11.70;99.90
28484;DHT22;15704;48.834;8.736;2023-05-07T03:22:56;11.70;99.90
28484;DHT22;15704;48.834;8.736;2023-05-07T03:25:23;11.70;99.90
28484;DHT22;15704;48.834;8.736;2023-05-07T03:27:50;11.70;99.90
28484;DHT22;15704;48.834;8.736;2023-05-07T03:30:16;11.60;99.90
28484;DHT22;15704;48.834;8.736;2023-05-07T03:32:43;11.60;99.90
28484;DHT22;15704;48.834;8.736;2023-05-07T03:35:10;11.60;99.90
28484;DHT22;15704;48.834;8.736;2023-05-07T03:37:37;11.60;99.90
28484;DHT22;15704;48.834;8.736;2023-05-07T03:40:05;11.50;99.90
28484;DHT22;15704;48.834;8.736;2023-05-07T03:42:32;11.50;99.90
28484;DHT22;15704;48.834;8.736;2023-05-07T03:44:59;11.60;99.90
28484;DHT22;15704;48.834;8.736;2023-05-07T03:47:25;11.50;99.90
28484;DHT22;15704;48.834;8.736;2023-05-07T03:49:52;11.60;99.90
28484;DHT22;15704;48.834;8.736;2023-05-07T03:52:20;11.60;99.90
28484;DHT22;15704;48.834;8.736;2023-05-07T03:54:52;11.60;99.90
28484;DHT22;15704;48.834;8.736;2023-05-07T03:57:18;11.60;99.90
28484;DHT22;15704;48.834;8.736;2023-05-07T03:59:45;11.70;99.90
28484;DHT22;15704;48.834;8.736;2023-05-07T04:02:12;11.70;99.90
28484;DHT22;15704;48.834;8.736;2023-05-07T04:04:38;11.70;99.90
28484;DHT22;15704;48.834;8.736;2023-05-07T04:07:05;11.70;99.90
28484;DHT22;15704;48.834;8.736;2023-05-07T04:09:32;11.80;99.90
28484;DHT22;15704;48.834;8.736;2023-05-07T04:11:59;11.90;99.90
28484;DHT22;15704;48.834;8.736;2023-05-07T04:14:25;11.90;99.90
28484;DHT22;15704;48.834;8.736;2023-05-07T04:16:52;12.00;99.90
28484;DHT22;15704;48.834;8.736;2023-05-07T04:19:19;12.00;99.90
28484;DHT22;15704;48.834;8.736;2023-05-07T04:21:46;12.10;99.90
28484;DHT22;15704;48.834;8.736;2023-05-07T04:24:13;12.10;99.90
28484;DHT22;15704;48.834;8.736;2023-05-07T04:26:40;12.20;99.90
28484;DHT22;15704;48.834;8.736;2023-05-07T04:29:07;12.30;99.90
28484;DHT22;15704;48.834;8.736;2023-05-07T04:31:33;12.30;99.90
28484;DHT22;15704;48.834;8.736;2023-05-07T04:34:00;12.40;99.90
28484;DHT22;15704;48.834;8.736;2023-05-07T04:36:27;12.50;99.90
28484;DHT22;15704;48.834;8.736;2023-05-07T04:38:54;12.60;99.90
28484;DHT22;15704;48.834;8.736;2023-05-07T04:41:21;12.60;99.90
28484;DHT22;15704;48.834;8.736;2023-05-07T04:43:48;12.70;99.90
28484;DHT22;15704;48.834;8.736;2023-05-07T04:46:14;12.80;99.90
28484;DHT22;15704;48.834;8.736;2023-05-07T04:48:41;12.90;99.90
28484;DHT22;15704;48.834;8.736;2023-05-07T04:51:08;13.00;99.90
28484;DHT22;15704;48.834;8.736;2023-05-07T04:53:34;13.10;99.90
28484;DHT22;15704;48.834;8.736;2023-05-07T04:56:01;13.10;99.90
28484;DHT22;15704;48.834;8.736;2023-05-07T04:58:28;13.20;99.90
28484;DHT22;15704;48.834;8.736;2023-05-07T05:00:58;13.30;99.90
28484;DHT22;15704;48.834;8.736;2023-05-07T05:03:25;13.40;99.90
28484;DHT22;15704;48.834;8.736;2023-05-07T05:05:52;13.50;99.90
28484;DHT22;15704;48.834;8.736;2023-05-07T05:08:19;13.60;99.90
28484;DHT22;15704;48.834;8.736;2023-05-07T05:10:46;13.60;99.90
28484;DHT22;15704;48.834;8.736;2023-05-07T05:13:15;13.80;99.90
28484;DHT22;15704;48.834;8.736;2023-05-07T05:15:42;13.90;99.90
28484;DHT22;15704;48.834;8.736;2023-05-07T05:18:09;14.10;99.90
28484;DHT22;15704;48.834;8.736;2023-05-07T05:20:35;14.30;99.90
28484;DHT22;15704;48.834;8.736;2023-05-07T05:23:02;14.50;99.90
28484;DHT22;15704;48.834;8.736;2023-05-07T05:25:29;14.80;99.90
28484;DHT22;15704;48.834;8.736;2023-05-07T05:27:56;15.00;99.90
28484;DHT22;15704;48.834;8.736;2023-05-07T05:30:23;15.20;99.90
28484;DHT22;15704;48.834;8.736;2023-05-07T05:32:50;15.40;99.90
28484;DHT22;15704;48.834;8.736;2023-05-07T05:35:16;15.50;99.90
28484;DHT22;15704;48.834;8.736;2023-05-07T05:37:43;15.70;99.90
28484;DHT22;15704;48.834;8.736;2023-05-07T05:40:10;15.80;99.90
28484;DHT22;15704;48.834;8.736;2023-05-07T05:42:37;15.90;99.90
28484;DHT22;15704;48.834;8.736;2023-05-07T05:45:04;15.90;99.90
28484;DHT22;15704;48.834;8.736;2023-05-07T05:47:31;16.00;99.90
28484;DHT22;15704;48.834;8.736;2023-05-07T05:49:58;16.00;99.90
28484;DHT22;15704;48.834;8.736;2023-05-07T05:52:25;16.00;99.90
28484;DHT22;15704;48.834;8.736;2023-05-07T05:54:52;16.10;99.90
28484;DHT22;15704;48.834;8.736;2023-05-07T05:57:18;16.10;99.90
28484;DHT22;15704;48.834;8.736;2023-05-07T05:59:45;16.30;99.90
28484;DHT22;15704;48.834;8.736;2023-05-07T06:02:13;16.50;99.90
28484;DHT22;15704;48.834;8.736;2023-05-07T06:04:40;16.80;99.90
28484;DHT22;15704;48.834;8.736;2023-05-07T06:07:09;17.00;99.90
28484;DHT22;15704;48.834;8.736;2023-05-07T06:09:36;17.10;99.90
28484;DHT22;15704;48.834;8.736;2023-05-07T06:12:03;17.10;99.90
28484;DHT22;15704;48.834;8.736;2023-05-07T06:14:29;17.00;99.90
28484;DHT22;15704;48.834;8.736;2023-05-07T06:16:57;17.10;99.90
28484;DHT22;15704;48.834;8.736;2023-05-07T06:19:24;17.10;99.90
28484;DHT22;15704;48.834;8.736;2023-05-07T06:21:52;17.10;99.90
28484;DHT22;15704;48.834;8.736;2023-05-07T06:24:19;17.10;99.90
28484;DHT22;15704;48.834;8.736;2023-05-07T06:26:46;17.20;99.90
28484;DHT22;15704;48.834;8.736;2023-05-07T06:29:12;17.20;99.90
28484;DHT22;15704;48.834;8.736;2023-05-07T06:31:39;17.30;99.90
28484;DHT22;15704;48.834;8.736;2023-05-07T06:34:06;17.30;99.90
28484;DHT22;15704;48.834;8.736;2023-05-07T06:36:34;17.50;99.90
28484;DHT22;15704;48.834;8.736;2023-05-07T06:39:01;17.60;99.90
28484;DHT22;15704;48.834;8.736;2023-05-07T06:41:28;17.70;99.90
28484;DHT22;15704;48.834;8.736;2023-05-07T06:43:54;17.70;99.90
28484;DHT22;15704;48.834;8.736;2023-05-07T06:46:21;18.00;99.90
28484;DHT22;15704;48.834;8.736;2023-05-07T06:48:48;18.10;99.90
28484;DHT22;15704;48.834;8.736;2023-05-07T06:51:14;18.10;99.90
28484;DHT22;15704;48.834;8.736;2023-05-07T06:53:41;18.30;99.90
28484;DHT22;15704;48.834;8.736;2023-05-07T06:56:08;18.30;99.90
28484;DHT22;15704;48.834;8.736;2023-05-07T06:58:35;18.50;99.90
28484;DHT22;15704;48.834;8.736;2023-05-07T07:01:01;18.90;99.90
28484;DHT22;15704;48.834;8.736;2023-05-07T07:03:28;19.10;99.90
28484;DHT22;15704;48.834;8.736;2023-05-07T07:05:55;19.30;99.90
28484;DHT22;15704;48.834;8.736;2023-05-07T07:08:22;19.60;99.90
28484;DHT22;15704;48.834;8.736;2023-05-07T07:10:49;19.90;99.90
28484;DHT22;15704;48.834;8.736;2023-05-07T07:13:15;20.00;99.90
28484;DHT22;15704;48.834;8.736;2023-05-07T07:15:43;19.90;99.90
28484;DHT22;15704;48.834;8.736;2023-05-07T07:18:10;19.70;99.90
28484;DHT22;15704;48.834;8.736;2023-05-07T07:20:37;19.50;99.90
28484;DHT22;15704;48.834;8.736;2023-05-07T07:23:04;19.40;99.90
28484;DHT22;15704;48.834;8.736;2023-05-07T07:25:30;19.30;99.90
28484;DHT22;15704;48.834;8.736;2023-05-07T07:27:57;19.50;99.90
28484;DHT22;15704;48.834;8.736;2023-05-07T07:30:25;19.40;99.90
28484;DHT22;15704;48.834;8.736;2023-05-07T07:32:52;19.40;99.90
28484;DHT22;15704;48.834;8.736;2023-05-07T07:35:19;19.30;99.90
28484;DHT22;15704;48.834;8.736;2023-05-07T07:37:47;19.20;99.90
28484;DHT22;15704;48.834;8.736;2023-05-07T07:40:16;19.20;99.90
28484;DHT22;15704;48.834;8.736;2023-05-07T07:42:42;19.30;99.90
28484;DHT22;15704;48.834;8.736;2023-05-07T07:45:10;19.40;99.90
28484;DHT22;15704;48.834;8.736;2023-05-07T07:47:37;19.50;99.90
28484;DHT22;15704;48.834;8.736;2023-05-07T07:50:04;19.40;99.90
28484;DHT22;15704;48.834;8.736;2023-05-07T07:52:31;19.60;99.90
28484;DHT22;15704;48.834;8.736;2023-05-07T07:54:57;19.70;99.90
28484;DHT22;15704;48.834;8.736;2023-05-07T07:57:24;19.70;99.90
28484;DHT22;15704;48.834;8.736;2023-05-07T07:59:51;19.90;99.90
28484;DHT22;15704;48.834;8.736;2023-05-07T08:02:18;20.10;99.90
28484;DHT22;15704;48.834;8.736;2023-05-07T08:04:45;20.10;99.90
28484;DHT22;15704;48.834;8.736;2023-05-07T08:07:12;20.40;99.90
28484;DHT22;15704;48.834;8.736;2023-05-07T08:09:39;20.50;99.90
28484;DHT22;15704;48.834;8.736;2023-05-07T08:12:07;20.60;99.90
28484;DHT22;15704;48.834;8.736;2023-05-07T08:14:34;21.10;99.90
28484;DHT22;15704;48.834;8.736;2023-05-07T08:17:03;21.20;99.90
28484;DHT22;15704;48.834;8.736;2023-05-07T08:19:29;21.10;99.90
28484;DHT22;15704;48.834;8.736;2023-05-07T08:21:56;21.10;99.90
28484;DHT22;15704;48.834;8.736;2023-05-07T08:24:23;21.50;99.90
28484;DHT22;15704;48.834;8.736;2023-05-07T08:26:50;21.60;99.90
28484;DHT22;15704;48.834;8.736;2023-05-07T08:29:17;21.80;99.90
28484;DHT22;15704;48.834;8.736;2023-05-07T08:31:43;21.80;99.90
28484;DHT22;15704;48.834;8.736;2023-05-07T08:34:10;22.10;99.90
28484;DHT22;15704;48.834;8.736;2023-05-07T08:36:37;22.00;99.90
28484;DHT22;15704;48.834;8.736;2023-05-07T08:39:03;22.20;99.90
28484;DHT22;15704;48.834;8.736;2023-05-07T08:41:30;22.20;99.90
28484;DHT22;15704;48.834;8.736;2023-05-07T08:43:58;22.20;99.90
28484;DHT22;15704;48.834;8.736;2023-05-07T08:46:31;22.40;99.90
28484;DHT22;15704;48.834;8.736;2023-05-07T08:48:58;22.40;99.90
28484;DHT22;15704;48.834;8.736;2023-05-07T08:51:25;22.50;99.90
28484;DHT22;15704;48.834;8.736;2023-05-07T08:53:52;22.70;99.90
28484;DHT22;15704;48.834;8.736;2023-05-07T08:56:18;22.50;99.90
28484;DHT22;15704;48.834;8.736;2023-05-07T08:58:48;22.50;99.90
28484;DHT22;15704;48.834;8.736;2023-05-07T09:01:16;22.10;99.90
28484;DHT22;15704;48.834;8.736;2023-05-07T09:03:46;21.80;99.90
28484;DHT22;15704;48.834;8.736;2023-05-07T09:06:14;21.70;99.90
28484;DHT22;15704;48.834;8.736;2023-05-07T09:08:53;21.90;99.90
28484;DHT22;15704;48.834;8.736;2023-05-07T09:11:22;22.20;99.90
28484;DHT22;15704;48.834;8.736;2023-05-07T09:13:54;22.20;99.90
28484;DHT22;15704;48.834;8.736;2023-05-07T09:16:21;22.10;99.90
28484;DHT22;15704;48.834;8.736;2023-05-07T09:18:52;21.80;99.90
28484;DHT22;15704;48.834;8.736;2023-05-07T09:21:22;21.90;99.90
28484;DHT22;15704;48.834;8.736;2023-05-07T09:23:53;22.00;99.90
28484;DHT22;15704;48.834;8.736;2023-05-07T09:26:25;22.00;99.90
28484;DHT22;15704;48.834;8.736;2023-05-07T09:28:52;21.70;99.90
28484;DHT22;15704;48.834;8.736;2023-05-07T09:31:18;21.50;99.90
28484;DHT22;15704;48.834;8.736;2023-05-07T09:33:47;21.10;99.90
28484;DHT22;15704;48.834;8.736;2023-05-07T09:36:15;20.80;99.90
28484;DHT22;15704;48.834;8.736;2023-05-07T09:38:42;20.70;99.90
28484;DHT22;15704;48.834;8.736;2023-05-07T09:41:10;20.30;99.90
28484;DHT22;15704;48.834;8.736;2023-05-07T09:43:39;20.00;99.90
28484;DHT22;15704;48.834;8.736;2023-05-07T09:46:11;20.00;99.90
28484;DHT22;15704;48.834;8.736;2023-05-07T09:48:39;20.20;99.90
28484;DHT22;15704;48.834;8.736;2023-05-07T09:53:39;20.20;99.90
28484;DHT22;15704;48.834;8.736;2023-05-07T09:56:07;20.30;99.90
28484;DHT22;15704;48.834;8.736;2023-05-07T09:58:37;20.40;99.90
28484;DHT22;15704;48.834;8.736;2023-05-07T10:01:04;20.40;99.90
28484;DHT22;15704;48.834;8.736;2023-05-07T10:03:33;20.60;99.90
28484;DHT22;15704;48.834;8.736;2023-05-07T10:06:01;20.50;99.90
28484;DHT22;15704;48.834;8.736;2023-05-07T10:08:30;20.50;99.90
28484;DHT22;15704;48.834;8.736;2023-05-07T10:10:57;20.70;99.90
28484;DHT22;15704;48.834;8.736;2023-05-07T10:13:24;20.50;99.90
28484;DHT22;15704;48.834;8.736;2023-05-07T10:15:51;20.50;99.90
28484;DHT22;15704;48.834;8.736;2023-05-07T10:18:18;20.30;99.90
28484;DHT22;15704;48.834;8.736;2023-05-07T10:20:51;20.00;99.90
28484;DHT22;15704;48.834;8.736;2023-05-07T10:23:23;19.80;99.90
28484;DHT22;15704;48.834;8.736;2023-05-07T10:25:50;19.60;99.90
28484;DHT22;15704;48.834;8.736;2023-05-07T10:28:23;19.60;99.90
28484;DHT22;15704;48.834;8.736;2023-05-07T10:33:46;19.10;99.90
28484;DHT22;15704;48.834;8.736;2023-05-07T10:36:15;18.90;99.90
28484;DHT22;15704;48.834;8.736;2023-05-07T10:38:42;18.80;99.90
28484;DHT22;15704;48.834;8.736;2023-05-07T10:41:10;18.70;99.90
28484;DHT22;15704;48.834;8.736;2023-05-07T10:43:41;18.80;99.90
28484;DHT22;15704;48.834;8.736;2023-05-07T10:46:18;18.90;99.90
28484;DHT22;15704;48.834;8.736;2023-05-07T10:51:27;18.80;99.90
28484;DHT22;15704;48.834;8.736;2023-05-07T10:56:42;18.90;99.90
28484;DHT22;15704;48.834;8.736;2023-05-07T11:01:58;19.00;99.90
28484;DHT22;15704;48.834;8.736;2023-05-07T11:04:25;19.20;99.90
28484;DHT22;15704;48.834;8.736;2023-05-07T11:09:54;19.80;99.90
28484;DHT22;15704;48.834;8.736;2023-05-07T11:15:08;20.40;99.90
28484;DHT22;15704;48.834;8.736;2023-05-07T11:17:53;20.60;99.90
28484;DHT22;15704;48.834;8.736;2023-05-07T11:20:20;20.60;99.90
28484;DHT22;15704;48.834;8.736;2023-05-07T11:22:47;21.10;99.90
28484;DHT22;15704;48.834;8.736;2023-05-07T11:25:18;21.40;99.90
28484;DHT22;15704;48.834;8.736;2023-05-07T11:27:45;21.60;99.90
28484;DHT22;15704;48.834;8.736;2023-05-07T11:30:18;21.80;99.90
28484;DHT22;15704;48.834;8.736;2023-05-07T11:32:47;22.10;99.90
28484;DHT22;15704;48.834;8.736;2023-05-07T11:35:15;22.20;99.90
28484;DHT22;15704;48.834;8.736;2023-05-07T11:37:44;22.40;99.90
28484;DHT22;15704;48.834;8.736;2023-05-07T11:40:12;22.70;99.90
28484;DHT22;15704;48.834;8.736;2023-05-07T11:42:40;23.00;99.90
28484;DHT22;15704;48.834;8.736;2023-05-07T11:45:10;23.00;99.90
28484;DHT22;15704;48.834;8.736;2023-05-07T11:47:37;23.30;99.90
28484;DHT22;15704;48.834;8.736;2023-05-07T11:50:06;23.20;99.90
28484;DHT22;15704;48.834;8.736;2023-05-07T11:52:34;23.20;99.90
28484;DHT22;15704;48.834;8.736;2023-05-07T11:55:02;23.40;99.90
28484;DHT22;15704;48.834;8.736;2023-05-07T11:57:30;23.40;99.90
28484;DHT22;15704;48.834;8.736;2023-05-07T11:59:57;23.40;99.90
28484;DHT22;15704;48.834;8.736;2023-05-07T12:02:25;23.50;99.90
28484;DHT22;15704;48.834;8.736;2023-05-07T12:04:53;23.50;99.90
28484;DHT22;15704;48.834;8.736;2023-05-07T12:07:20;23.50;99.90
28484;DHT22;15704;48.834;8.736;2023-05-07T12:09:47;23.50;99.90
28484;DHT22;15704;48.834;8.736;2023-05-07T12:12:14;23.60;99.90
28484;DHT22;15704;48.834;8.736;2023-05-07T12:14:46;23.50;99.90
28484;DHT22;15704;48.834;8.736;2023-05-07T12:17:14;23.20;99.90
28484;DHT22;15704;48.834;8.736;2023-05-07T12:19:43;23.10;99.90
28484;DHT22;15704;48.834;8.736;2023-05-07T12:22:11;23.10;99.90
28484;DHT22;15704;48.834;8.736;2023-05-07T12:24:57;23.00;99.90
28484;DHT22;15704;48.834;8.736;2023-05-07T12:27:26;23.00;99.90
28484;DHT22;15704;48.834;8.736;2023-05-07T12:29:53;23.00;99.90
28484;DHT22;15704;48.834;8.736;2023-05-07T12:32:20;22.70;99.90
28484;DHT22;15704;48.834;8.736;2023-05-07T12:34:51;22.20;99.90
28484;DHT22;15704;48.834;8.736;2023-05-07T12:37:23;22.20;99.90
28484;DHT22;15704;48.834;8.736;2023-05-07T12:40:10;22.00;99.90
28484;DHT22;15704;48.834;8.736;2023-05-07T12:42:39;21.60;99.90
28484;DHT22;15704;48.834;8.736;2023-05-07T12:45:15;21.50;99.90
28484;DHT22;15704;48.834;8.736;2023-05-07T12:47:46;21.40;99.90
28484;DHT22;15704;48.834;8.736;2023-05-07T12:50:14;21.10;99.90
28484;DHT22;15704;48.834;8.736;2023-05-07T12:52:43;20.90;99.90
28484;DHT22;15704;48.834;8.736;2023-05-07T12:55:14;20.70;99.90
28484;DHT22;15704;48.834;8.736;2023-05-07T12:57:42;20.50;99.90
28484;DHT22;15704;48.834;8.736;2023-05-07T13:00:10;20.30;99.90
28484;DHT22;15704;48.834;8.736;2023-05-07T13:02:41;20.20;99.90
28484;DHT22;15704;48.834;8.736;2023-05-07T13:05:11;20.10;99.90
28484;DHT22;15704;48.834;8.736;2023-05-07T13:07:38;19.80;99.90
28484;DHT22;15704;48.834;8.736;2023-05-07T13:10:05;19.50;99.90
28484;DHT22;15704;48.834;8.736;2023-05-07T13:12:32;19.30;99.90
28484;DHT22;15704;48.834;8.736;2023-05-07T13:14:59;19.10;99.90
28484;DHT22;15704;48.834;8.736;2023-05-07T13:17:26;18.90;99.90
28484;DHT22;15704;48.834;8.736;2023-05-07T13:19:53;18.90;99.90
28484;DHT22;15704;48.834;8.736;2023-05-07T13:22:19;18.70;99.90
28484;DHT22;15704;48.834;8.736;2023-05-07T13:24:46;18.60;99.90
28484;DHT22;15704;48.834;8.736;2023-05-07T13:27:13;18.40;99.90
28484;DHT22;15704;48.834;8.736;2023-05-07T13:29:39;18.30;99.90
28484;DHT22;15704;48.834;8.736;2023-05-07T13:32:06;18.20;99.90
28484;DHT22;15704;48.834;8.736;2023-05-07T13:34:33;18.00;99.90
28484;DHT22;15704;48.834;8.736;2023-05-07T13:37:00;17.80;99.90
28484;DHT22;15704;48.834;8.736;2023-05-07T13:39:27;17.70;99.90
28484;DHT22;15704;48.834;8.736;2023-05-07T13:41:54;17.50;99.90
28484;DHT22;15704;48.834;8.736;2023-05-07T13:44:20;17.40;99.90
28484;DHT22;15704;48.834;8.736;2023-05-07T13:46:47;17.30;99.90
28484;DHT22;15704;48.834;8.736;2023-05-07T13:49:14;17.10;99.90
28484;DHT22;15704;48.834;8.736;2023-05-07T13:51:41;16.90;99.90
28484;DHT22;15704;48.834;8.736;2023-05-07T13:54:07;16.70;99.90
28484;DHT22;15704;48.834;8.736;2023-05-07T13:56:34;16.50;99.90
28484;DHT22;15704;48.834;8.736;2023-05-07T13:59:01;16.40;99.90
28484;DHT22;15704;48.834;8.736;2023-05-07T14:01:28;16.20;99.90
28484;DHT22;15704;48.834;8.736;2023-05-07T14:03:56;16.10;99.90
28484;DHT22;15704;48.834;8.736;2023-05-07T14:06:24;16.00;99.90
28484;DHT22;15704;48.834;8.736;2023-05-07T14:08:51;16.00;99.90
28484;DHT22;15704;48.834;8.736;2023-05-07T14:11:18;16.10;99.90
28484;DHT22;15704;48.834;8.736;2023-05-07T14:13:44;16.30;99.90
28484;DHT22;15704;48.834;8.736;2023-05-07T14:16:11;16.60;99.90
28484;DHT22;15704;48.834;8.736;2023-05-07T14:18:38;16.80;99.90
28484;DHT22;15704;48.834;8.736;2023-05-07T14:21:05;16.90;99.90
28484;DHT22;15704;48.834;8.736;2023-05-07T14:23:36;17.10;99.90
28484;DHT22;15704;48.834;8.736;2023-05-07T14:26:02;17.30;99.90
28484;DHT22;15704;48.834;8.736;2023-05-07T14:28:29;17.50;99.90
28484;DHT22;15704;48.834;8.736;2023-05-07T14:30:56;17.70;99.90
28484;DHT22;15704;48.834;8.736;2023-05-07T14:33:23;17.90;99.90
28484;DHT22;15704;48.834;8.736;2023-05-07T14:35:50;18.10;99.90
28484;DHT22;15704;48.834;8.736;2023-05-07T14:38:16;18.20;99.90
28484;DHT22;15704;48.834;8.736;2023-05-07T14:40:44;18.40;99.90
28484;DHT22;15704;48.834;8.736;2023-05-07T14:43:10;18.40;99.90
28484;DHT22;15704;48.834;8.736;2023-05-07T14:45:37;18.30;99.90
28484;DHT22;15704;48.834;8.736;2023-05-07T14:48:04;18.20;99.90
28484;DHT22;15704;48.834;8.736;2023-05-07T14:50:31;18.20;99.90
28484;DHT22;15704;48.834;8.736;2023-05-07T14:52:58;18.20;99.90
28484;DHT22;15704;48.834;8.736;2023-05-07T14:55:25;18.20;99.90
28484;DHT22;15704;48.834;8.736;2023-05-07T14:57:51;18.30;99.90
28484;DHT22;15704;48.834;8.736;2023-05-07T15:00:18;18.30;99.90
28484;DHT22;15704;48.834;8.736;2023-05-07T15:02:45;18.20;99.90
28484;DHT22;15704;48.834;8.736;2023-05-07T15:05:12;17.90;99.90
28484;DHT22;15704;48.834;8.736;2023-05-07T15:07:41;17.70;99.90
28484;DHT22;15704;48.834;8.736;2023-05-07T15:10:08;17.60;99.90
28484;DHT22;15704;48.834;8.736;2023-05-07T15:12:35;17.60;99.90
28484;DHT22;15704;48.834;8.736;2023-05-07T15:15:01;17.80;99.90
28484;DHT22;15704;48.834;8.736;2023-05-07T15:17:28;18.00;99.90
28484;DHT22;15704;48.834;8.736;2023-05-07T15:19:55;18.10;99.90
28484;DHT22;15704;48.834;8.736;2023-05-07T15:22:22;17.90;99.90
28484;DHT22;15704;48.834;8.736;2023-05-07T15:24:48;18.10;99.90
28484;DHT22;15704;48.834;8.736;2023-05-07T15:27:15;17.90;99.90
28484;DHT22;15704;48.834;8.736;2023-05-07T15:29:43;18.00;99.90
28484;DHT22;15704;48.834;8.736;2023-05-07T15:32:10;17.90;99.90
28484;DHT22;15704;48.834;8.736;2023-05-07T15:34:37;18.10;99.90
28484;DHT22;15704;48.834;8.736;2023-05-07T15:37:03;18.20;99.90
28484;DHT22;15704;48.834;8.736;2023-05-07T15:39:30;18.20;99.90
28484;DHT22;15704;48.834;8.736;2023-05-07T15:41:58;18.20;99.90
28484;DHT22;15704;48.834;8.736;2023-05-07T15:44:24;18.10;99.90
28484;DHT22;15704;48.834;8.736;2023-05-07T15:47:01;18.20;99.90
28484;DHT22;15704;48.834;8.736;2023-05-07T15:49:27;18.20;99.90
28484;DHT22;15704;48.834;8.736;2023-05-07T15:51:54;18.20;99.90